createdAt,value
2018-08-20T00:00:43.295Z,56.08
2018-08-20T00:03:16.797Z,55.83
2018-08-20T00:05:54.392Z,55.84
2018-08-20T00:08:27.824Z,56.03
2018-08-20T00:11:01.304Z,56.33
2018-08-20T00:13:34.681Z,55.91
2018-08-20T00:16:08.121Z,56.67
2018-08-20T00:18:41.587Z,56.84
2018-08-20T00:21:14.983Z,56.81
2018-08-20T00:23:48.392Z,56.93
2018-08-20T00:26:21.833Z,57.04
2018-08-20T00:28:55.215Z,56.91
2018-08-20T00:31:28.769Z,56.27
2018-08-20T00:34:02.203Z,56.76
2018-08-20T00:36:35.692Z,56.65
2018-08-20T00:39:10.682Z,56.38
2018-08-20T00:41:44.434Z,56.86
2018-08-20T00:44:18.419Z,56.18
2018-08-20T00:46:51.840Z,56.52
2018-08-20T00:49:25.253Z,57.35
2018-08-20T00:51:58.769Z,56.97
2018-08-20T00:54:32.237Z,56.85
2018-08-20T00:57:05.748Z,56.37
2018-08-20T00:59:39.164Z,56.50
2018-08-20T01:02:12.597Z,57.02
2018-08-20T01:04:46.083Z,57.26
2018-08-20T01:07:19.491Z,56.83
2018-08-20T01:09:52.914Z,56.65
2018-08-20T01:12:27.126Z,56.83
2018-08-20T01:15:00.535Z,56.70
2018-08-20T01:17:33.990Z,56.43
2018-08-20T01:20:07.531Z,56.54
2018-08-20T01:22:40.942Z,57.00
2018-08-20T01:25:14.380Z,57.32
2018-08-20T01:27:50.436Z,57.21
2018-08-20T01:30:23.847Z,57.42
2018-08-20T01:33:01.596Z,56.81
2018-08-20T01:35:35.059Z,56.85
2018-08-20T01:38:08.551Z,56.80
2018-08-20T01:40:41.952Z,56.91
2018-08-20T01:43:15.361Z,57.02
2018-08-20T01:45:48.739Z,57.46
2018-08-20T01:48:22.168Z,57.30
2018-08-20T01:50:55.619Z,57.03
2018-08-20T01:53:29.029Z,57.55
2018-08-20T01:56:02.484Z,57.36
2018-08-20T01:58:35.927Z,57.60
2018-08-20T02:01:09.728Z,56.69
2018-08-20T02:03:43.169Z,57.23
2018-08-20T02:06:16.593Z,57.74
2018-08-20T02:08:50.050Z,57.77
2018-08-20T02:11:23.518Z,57.18
2018-08-20T02:13:57.964Z,57.36
2018-08-20T02:16:31.401Z,57.34
2018-08-20T02:19:04.845Z,57.93
2018-08-20T02:21:38.286Z,57.19
2018-08-20T02:24:11.670Z,57.16
2018-08-20T02:26:45.088Z,57.71
2018-08-20T02:29:18.479Z,56.69
2018-08-20T02:31:51.940Z,57.35
2018-08-20T02:34:28.245Z,57.11
2018-08-20T02:37:01.675Z,56.92
2018-08-20T02:39:35.090Z,57.33
2018-08-20T02:42:08.523Z,57.39
2018-08-20T02:44:41.927Z,57.21
2018-08-20T02:47:15.418Z,57.38
2018-08-20T02:49:48.832Z,57.36
2018-08-20T02:52:22.275Z,57.60
2018-08-20T02:54:55.748Z,57.44
2018-08-20T02:57:29.159Z,58.04
2018-08-20T03:00:02.716Z,57.52
2018-08-20T03:02:36.286Z,57.50
2018-08-20T03:05:10.945Z,57.82
2018-08-20T03:07:44.376Z,57.83
2018-08-20T03:10:17.819Z,57.95
2018-08-20T03:12:51.234Z,57.75
2018-08-20T03:15:24.734Z,57.83
2018-08-20T03:17:58.144Z,57.80
2018-08-20T03:20:31.597Z,57.73
2018-08-20T03:23:05.037Z,57.73
2018-08-20T03:25:38.465Z,57.96
2018-08-20T03:28:11.877Z,57.77
2018-08-20T03:30:45.256Z,57.81
2018-08-20T03:33:18.684Z,58.05
2018-08-20T03:35:52.057Z,57.94
2018-08-20T03:38:25.460Z,58.33
2018-08-20T03:40:58.878Z,58.23
2018-08-20T03:43:33.014Z,58.01
2018-08-20T03:46:06.540Z,58.08
2018-08-20T03:48:39.976Z,58.48
2018-08-20T03:51:13.383Z,58.50
2018-08-20T03:53:46.792Z,58.89
2018-08-20T03:56:20.224Z,58.95
2018-08-20T03:58:53.800Z,59.09
2018-08-20T04:01:27.352Z,59.11
2018-08-20T04:04:00.861Z,59.61
2018-08-20T04:06:34.256Z,59.92
2018-08-20T04:09:07.712Z,59.18
2018-08-20T04:11:41.086Z,59.02
2018-08-20T04:14:14.608Z,59.23
2018-08-20T04:16:47.988Z,59.72
2018-08-20T04:19:21.416Z,59.28
2018-08-20T04:21:54.808Z,59.67
2018-08-20T04:24:28.217Z,59.94
2018-08-20T04:27:02.181Z,60.12
2018-08-20T04:29:35.583Z,60.37
2018-08-20T04:32:08.971Z,60.12
2018-08-20T04:34:42.395Z,60.43
2018-08-20T04:37:15.773Z,60.43
2018-08-20T04:39:49.200Z,60.33
2018-08-20T04:42:22.700Z,60.13
2018-08-20T04:44:56.824Z,60.71
2018-08-20T04:47:30.203Z,60.48
2018-08-20T04:50:03.856Z,60.83
2018-08-20T04:52:37.292Z,60.87
2018-08-20T04:55:10.899Z,60.55
2018-08-20T04:57:44.297Z,60.71
2018-08-20T05:00:17.720Z,60.26
2018-08-20T05:02:51.129Z,60.45
2018-08-20T05:05:24.533Z,60.18
2018-08-20T05:07:57.915Z,60.80
2018-08-20T05:10:31.343Z,61.04
2018-08-20T05:13:04.756Z,60.90
2018-08-20T05:15:38.191Z,61.10
2018-08-20T05:18:11.670Z,60.83
2018-08-20T05:20:45.132Z,60.66
2018-08-20T05:23:18.528Z,61.12
2018-08-20T05:25:51.966Z,60.73
2018-08-20T05:28:25.374Z,60.73
2018-08-20T05:30:58.881Z,60.51
2018-08-20T05:33:32.431Z,61.08
2018-08-20T05:36:05.852Z,60.05
2018-08-20T05:38:39.278Z,60.30
2018-08-20T05:41:12.705Z,60.80
2018-08-20T05:43:46.136Z,60.97
2018-08-20T05:46:19.578Z,60.57
2018-08-20T05:48:53.033Z,60.06
2018-08-20T05:51:26.468Z,60.49
2018-08-20T05:53:59.933Z,60.18
2018-08-20T05:56:33.403Z,60.38
2018-08-20T05:59:06.936Z,59.96
2018-08-20T06:01:40.466Z,60.84
2018-08-20T06:04:13.998Z,60.47
2018-08-20T06:06:47.447Z,60.57
2018-08-20T06:09:20.880Z,60.01
2018-08-20T06:11:54.364Z,60.10
2018-08-20T06:14:27.867Z,59.63
2018-08-20T06:17:01.361Z,59.48
2018-08-20T06:19:34.869Z,59.82
2018-08-20T06:22:08.368Z,59.69
2018-08-20T06:24:41.783Z,59.82
2018-08-20T06:27:15.229Z,60.23
2018-08-20T06:29:48.680Z,59.37
2018-08-20T06:32:22.096Z,59.72
2018-08-20T06:34:55.485Z,59.91
2018-08-20T06:37:28.893Z,59.36
2018-08-20T06:40:02.322Z,59.22
2018-08-20T06:42:35.728Z,59.29
2018-08-20T06:45:14.081Z,59.58
2018-08-20T06:47:47.847Z,59.10
2018-08-20T06:50:21.306Z,59.14
2018-08-20T06:52:54.751Z,59.42
2018-08-20T06:55:28.257Z,59.08
2018-08-20T06:58:03.006Z,59.02
2018-08-20T07:00:36.437Z,58.64
2018-08-20T07:03:09.927Z,58.45
2018-08-20T07:05:43.332Z,59.20
2018-08-20T07:08:16.716Z,59.32
2018-08-20T07:10:50.113Z,59.22
2018-08-20T07:13:34.316Z,59.35
2018-08-20T07:16:08.836Z,59.32
2018-08-20T07:18:42.270Z,58.07
2018-08-20T07:21:15.781Z,59.04
2018-08-20T07:23:50.071Z,58.83
2018-08-20T07:26:23.443Z,59.61
2018-08-20T07:28:56.852Z,58.78
2018-08-20T07:31:30.397Z,58.57
2018-08-20T07:34:03.857Z,58.01
2018-08-20T07:36:37.345Z,57.02
2018-08-20T07:39:10.894Z,56.44
2018-08-20T07:41:44.308Z,56.51
2018-08-20T07:44:17.721Z,57.19
2018-08-20T07:46:51.125Z,57.05
2018-08-20T07:49:24.514Z,56.69
2018-08-20T07:51:57.974Z,55.92
2018-08-20T07:54:34.039Z,55.87
2018-08-20T07:57:08.775Z,56.23
2018-08-20T07:59:42.328Z,57.35
2018-08-20T08:02:15.724Z,56.71
2018-08-20T08:04:49.106Z,57.74
2018-08-20T08:07:22.550Z,58.02
2018-08-20T08:09:55.955Z,58.50
2018-08-20T08:12:29.373Z,58.88
2018-08-20T08:15:03.212Z,60.00
2018-08-20T08:17:36.669Z,59.57
2018-08-20T08:20:11.884Z,60.00
2018-08-20T08:22:45.594Z,60.74
2018-08-20T08:25:19.325Z,61.00
2018-08-20T08:27:52.737Z,61.19
2018-08-20T08:30:26.146Z,60.80
2018-08-20T08:32:59.569Z,60.97
2018-08-20T08:35:33.068Z,61.29
2018-08-20T08:38:06.620Z,61.09
2018-08-20T08:40:40.034Z,61.94
2018-08-20T08:45:45.933Z,61.89
2018-08-20T08:48:19.363Z,62.79
2018-08-20T08:50:52.783Z,61.81
2018-08-20T08:53:26.248Z,61.97
2018-08-20T08:55:59.821Z,62.30
2018-08-20T08:58:33.251Z,62.56
2018-08-20T09:01:06.701Z,61.83
2018-08-20T09:03:40.146Z,62.57
2018-08-20T09:06:13.640Z,62.93
2018-08-20T09:08:47.035Z,63.46
2018-08-20T09:11:20.929Z,62.52
2018-08-20T09:13:54.346Z,64.44
2018-08-20T09:16:27.757Z,64.03
2018-08-20T09:19:01.236Z,64.65
2018-08-20T09:21:34.793Z,65.21
2018-08-20T09:24:08.257Z,65.57
2018-08-20T09:26:41.668Z,65.96
2018-08-20T09:29:15.149Z,66.75
2018-08-20T09:31:48.621Z,66.81
2018-08-20T09:34:22.069Z,67.19
2018-08-20T09:36:55.629Z,66.76
2018-08-20T09:39:29.048Z,65.93
2018-08-20T09:42:03.525Z,65.33
2018-08-20T09:44:36.984Z,65.90
2018-08-20T09:47:10.402Z,66.09
2018-08-20T09:49:43.807Z,66.16
2018-08-20T09:52:17.239Z,64.73
2018-08-20T09:54:50.668Z,65.54
2018-08-20T09:57:24.231Z,66.34
2018-08-20T09:59:57.642Z,65.33
2018-08-20T10:02:31.166Z,65.65
2018-08-20T10:05:04.923Z,65.71
2018-08-20T10:07:38.383Z,65.13
2018-08-20T10:10:11.880Z,66.20
2018-08-20T10:12:46.044Z,66.26
2018-08-20T10:15:19.488Z,66.07
2018-08-20T10:17:52.942Z,65.13
2018-08-20T10:20:26.372Z,65.05
2018-08-20T10:22:59.847Z,65.25
2018-08-20T10:25:33.218Z,64.03
2018-08-20T10:28:06.664Z,62.85
2018-08-20T10:30:40.078Z,63.34
2018-08-20T10:33:13.580Z,63.41
2018-08-20T10:35:46.947Z,62.93
2018-08-20T10:38:20.498Z,62.42
2018-08-20T10:40:53.908Z,63.13
2018-08-20T10:43:27.336Z,62.79
2018-08-20T10:46:06.063Z,62.62
2018-08-20T10:48:39.480Z,62.55
2018-08-20T10:51:12.889Z,63.09
2018-08-20T10:53:46.273Z,63.61
2018-08-20T10:56:19.745Z,62.25
2018-08-20T10:58:53.169Z,62.49
2018-08-20T11:01:26.540Z,61.07
2018-08-20T11:04:00.529Z,61.85
2018-08-20T11:06:33.913Z,61.48
2018-08-20T11:09:08.323Z,61.20
2018-08-20T11:11:41.717Z,61.36
2018-08-20T11:14:15.189Z,62.15
2018-08-20T11:16:48.573Z,62.58
2018-08-20T11:19:22.015Z,63.73
2018-08-20T11:21:55.428Z,63.67
2018-08-20T11:24:28.876Z,63.89
2018-08-20T11:27:02.955Z,63.84
2018-08-20T11:29:36.408Z,64.34
2018-08-20T11:32:09.818Z,64.16
2018-08-20T11:34:43.311Z,64.03
2018-08-20T11:37:16.742Z,63.68
2018-08-20T11:39:50.167Z,64.00
2018-08-20T11:42:23.571Z,63.14
2018-08-20T11:44:56.987Z,63.19
2018-08-20T11:47:30.452Z,62.59
2018-08-20T11:50:03.905Z,61.81
2018-08-20T11:52:38.308Z,61.60
2018-08-20T11:55:11.786Z,62.18
2018-08-20T11:57:45.172Z,62.05
2018-08-20T12:00:18.621Z,60.33
2018-08-20T12:02:52.052Z,59.76
2018-08-20T12:05:25.457Z,59.34
2018-08-20T12:07:58.948Z,58.14
2018-08-20T12:10:32.440Z,59.67
2018-08-20T12:13:05.978Z,58.81
2018-08-20T12:15:39.367Z,59.89
2018-08-20T12:18:12.783Z,60.32
2018-08-20T12:20:46.172Z,59.54
2018-08-20T12:23:19.664Z,59.07
2018-08-20T12:25:52.986Z,59.25
2018-08-20T12:28:26.485Z,60.17
2018-08-20T12:30:59.969Z,60.02
2018-08-20T12:33:33.421Z,58.83
2018-08-20T12:36:06.996Z,60.31
2018-08-20T12:38:40.420Z,60.37
2018-08-20T12:41:13.809Z,60.14
2018-08-20T12:43:47.231Z,60.11
2018-08-20T12:46:20.809Z,60.09
2018-08-20T12:48:54.232Z,58.93
2018-08-20T12:51:27.624Z,57.92
2018-08-20T12:54:01.079Z,57.34
2018-08-20T12:56:34.487Z,57.13
2018-08-20T12:59:07.903Z,56.87
2018-08-20T13:01:41.324Z,56.96
2018-08-20T13:04:14.742Z,56.52
2018-08-20T13:06:48.119Z,56.12
2018-08-20T13:09:21.626Z,56.17
2018-08-20T13:11:55.015Z,56.77
2018-08-20T13:14:28.423Z,57.09
2018-08-20T13:17:01.833Z,57.58
2018-08-20T13:19:35.275Z,57.46
2018-08-20T13:22:08.680Z,58.14
2018-08-20T13:24:42.105Z,58.57
2018-08-20T13:27:15.566Z,59.39
2018-08-20T13:29:49.231Z,59.65
2018-08-20T13:32:22.604Z,59.33
2018-08-20T13:34:56.069Z,59.21
2018-08-20T13:37:29.526Z,59.36
2018-08-20T13:40:03.054Z,58.20
2018-08-20T13:42:36.500Z,58.37
2018-08-20T13:45:09.996Z,58.07
2018-08-20T13:47:43.418Z,57.60
2018-08-20T13:50:16.996Z,58.54
2018-08-20T13:52:50.627Z,58.12
2018-08-20T13:55:24.068Z,57.98
2018-08-20T13:57:57.512Z,57.94
2018-08-20T14:00:31.190Z,57.50
2018-08-20T14:03:04.779Z,58.04
2018-08-20T14:05:38.339Z,59.26
2018-08-20T14:08:11.896Z,58.99
2018-08-20T14:10:45.389Z,57.91
2018-08-20T14:13:18.893Z,58.60
2018-08-20T14:15:52.316Z,58.52
2018-08-20T14:18:25.753Z,58.86
2018-08-20T14:21:07.479Z,58.60
2018-08-20T14:23:43.093Z,58.78
2018-08-20T14:26:16.573Z,58.74
2018-08-20T14:28:50.042Z,58.14
2018-08-20T14:31:23.480Z,58.46
2018-08-20T14:33:56.996Z,57.57
2018-08-20T14:36:30.481Z,57.95
2018-08-20T14:39:04.229Z,57.28
2018-08-20T14:41:37.696Z,58.07
2018-08-20T14:44:11.119Z,57.54
2018-08-20T14:46:44.656Z,56.63
2018-08-20T14:49:18.072Z,57.41
2018-08-20T14:51:51.584Z,57.09
2018-08-20T14:54:25.080Z,56.14
2018-08-20T14:56:59.474Z,56.89
2018-08-20T14:59:33.027Z,55.64
2018-08-20T15:02:06.743Z,55.75
2018-08-20T15:04:40.241Z,54.39
2018-08-20T15:07:13.764Z,53.99
2018-08-20T15:09:47.189Z,53.88
2018-08-20T15:12:20.608Z,54.08
2018-08-20T15:14:54.048Z,54.24
2018-08-20T15:17:27.504Z,54.52
2018-08-20T15:20:00.897Z,54.89
2018-08-20T15:22:34.475Z,55.54
2018-08-20T15:25:07.997Z,55.58
2018-08-20T15:27:41.427Z,55.10
2018-08-20T15:30:14.818Z,56.19
2018-08-20T15:32:48.306Z,56.73
2018-08-20T15:35:22.123Z,56.94
2018-08-20T15:37:55.976Z,56.94
2018-08-20T15:40:29.404Z,57.71
2018-08-20T15:43:02.991Z,57.77
2018-08-20T15:45:36.423Z,58.65
2018-08-20T15:48:09.859Z,58.66
2018-08-20T15:50:43.320Z,57.64
2018-08-20T15:53:16.851Z,58.95
2018-08-20T15:55:50.304Z,58.43
2018-08-20T15:58:23.738Z,58.26
2018-08-20T16:00:57.242Z,58.20
2018-08-20T16:03:30.754Z,57.94
2018-08-20T16:06:04.395Z,58.04
2018-08-20T16:08:37.801Z,58.19
2018-08-20T16:11:11.212Z,57.70
2018-08-20T16:13:44.632Z,57.58
2018-08-20T16:16:18.057Z,58.27
2018-08-20T16:18:51.648Z,58.44
2018-08-20T16:21:25.057Z,57.57
2018-08-20T16:23:58.433Z,57.20
2018-08-20T16:26:32.086Z,57.50
2018-08-20T16:29:05.605Z,57.55
2018-08-20T16:31:39.080Z,57.69
2018-08-20T16:34:12.457Z,58.03
2018-08-20T16:36:45.879Z,59.12
2018-08-20T16:39:19.336Z,57.49
2018-08-20T16:41:52.757Z,57.41
2018-08-20T16:44:26.162Z,57.16
2018-08-20T16:46:59.594Z,57.35
2018-08-20T16:49:33.008Z,57.70
2018-08-20T16:52:06.783Z,57.51
2018-08-20T16:54:40.176Z,57.20
2018-08-20T16:57:13.605Z,57.91
2018-08-20T16:59:47.175Z,57.87
2018-08-20T17:02:27.982Z,57.91
2018-08-20T17:05:01.704Z,57.70
2018-08-20T17:07:35.251Z,58.15
2018-08-20T17:10:10.103Z,57.76
2018-08-20T17:12:44.597Z,57.63
2018-08-20T17:15:19.925Z,57.87
2018-08-20T17:17:53.368Z,57.93
2018-08-20T17:20:26.793Z,57.99
2018-08-20T17:23:13.172Z,58.24
2018-08-20T17:26:02.283Z,57.91
2018-08-20T17:28:36.637Z,57.77
2018-08-20T17:31:12.772Z,58.30
2018-08-20T17:33:46.281Z,57.62
2018-08-20T17:36:19.754Z,57.47
2018-08-20T17:38:53.308Z,57.95
2018-08-20T17:41:26.704Z,58.04
2018-08-20T17:44:00.200Z,58.16
2018-08-20T17:46:33.700Z,57.91
2018-08-20T17:49:10.011Z,57.96
2018-08-20T17:51:43.501Z,58.21
2018-08-20T17:54:16.937Z,58.33
2018-08-20T17:56:50.383Z,58.22
2018-08-20T17:59:24.277Z,58.09
2018-08-20T18:01:57.696Z,58.47
2018-08-20T18:04:31.158Z,58.26
2018-08-20T18:07:04.557Z,58.28
2018-08-20T18:09:37.983Z,58.32
2018-08-20T18:12:11.441Z,57.92
2018-08-20T18:14:47.799Z,58.58
2018-08-20T18:17:21.362Z,58.26
2018-08-20T18:19:54.787Z,58.12
2018-08-20T18:22:28.233Z,58.49
2018-08-20T18:25:01.731Z,58.51
2018-08-20T18:27:41.256Z,58.18
2018-08-20T18:30:16.836Z,58.73
2018-08-20T18:32:50.635Z,58.70
2018-08-20T18:38:02.302Z,58.10
2018-08-20T18:40:35.795Z,57.55
2018-08-20T18:43:10.373Z,57.18
2018-08-20T18:45:43.955Z,57.01
2018-08-20T18:48:22.533Z,56.89
2018-08-20T18:50:55.967Z,57.49
2018-08-20T18:53:33.896Z,56.77
2018-08-20T18:56:13.437Z,56.15
2018-08-20T18:58:47.120Z,55.28
2018-08-20T19:01:20.720Z,54.87
2018-08-20T19:03:54.592Z,55.15
2018-08-20T19:06:28.005Z,54.39
2018-08-20T19:09:01.576Z,53.73
2018-08-20T19:11:36.075Z,53.69
2018-08-20T19:14:12.507Z,54.20
2018-08-20T19:16:46.012Z,53.99
2018-08-20T19:19:19.677Z,53.80
2018-08-20T19:21:53.165Z,52.90
2018-08-20T19:24:31.352Z,53.78
2018-08-20T19:27:09.104Z,52.84
2018-08-20T19:29:42.606Z,52.49
2018-08-20T19:32:16.119Z,53.22
2018-08-20T19:34:49.940Z,53.72
2018-08-20T19:37:23.504Z,53.37
2018-08-20T19:39:57.421Z,52.63
2018-08-20T19:42:33.427Z,53.27
2018-08-20T19:45:08.757Z,53.30
2018-08-20T19:47:42.275Z,53.13
2018-08-20T19:51:18.909Z,53.93
2018-08-20T19:53:52.563Z,53.02
2018-08-20T19:56:26.135Z,53.45
2018-08-20T19:58:59.598Z,53.56
2018-08-20T20:01:33.798Z,53.86
2018-08-20T20:04:07.493Z,53.34
2018-08-20T20:06:40.961Z,53.70
2018-08-20T20:09:14.986Z,54.21
2018-08-20T20:11:50.287Z,53.55
2018-08-20T20:14:23.831Z,53.43
2018-08-20T20:16:57.232Z,53.52
2018-08-20T20:19:30.676Z,54.04
2018-08-20T20:22:04.211Z,53.89
2018-08-20T20:24:37.667Z,54.25
2018-08-20T20:27:11.072Z,54.33
2018-08-20T20:29:44.512Z,53.73
2018-08-20T20:32:17.935Z,54.51
2018-08-20T20:34:51.413Z,54.70
2018-08-20T20:37:24.793Z,53.87
2018-08-20T20:39:59.704Z,54.25
2018-08-20T20:42:33.121Z,54.98
2018-08-20T20:45:06.630Z,54.39
2018-08-20T20:47:41.123Z,54.14
2018-08-20T20:50:14.826Z,54.87
2018-08-20T20:52:48.308Z,54.71
2018-08-20T20:55:21.877Z,55.46
2018-08-20T20:57:55.745Z,55.31
2018-08-20T21:00:29.286Z,55.20
2018-08-20T21:03:08.841Z,55.11
2018-08-20T21:05:42.439Z,55.14
2018-08-20T21:08:15.890Z,55.08
2018-08-20T21:10:49.331Z,55.84
2018-08-20T21:13:22.756Z,56.23
2018-08-20T21:16:14.928Z,55.80
2018-08-20T21:18:51.316Z,55.89
2018-08-20T21:21:25.464Z,56.17
2018-08-20T21:23:58.912Z,55.57
2018-08-20T21:26:32.377Z,56.93
2018-08-20T21:29:05.803Z,56.82
2018-08-20T21:31:44.608Z,56.73
2018-08-20T21:34:18.058Z,57.69
2018-08-20T21:36:51.534Z,57.34
2018-08-20T21:39:24.995Z,57.44
2018-08-20T21:41:58.414Z,57.30
2018-08-20T21:44:31.888Z,57.10
2018-08-20T21:47:28.055Z,57.59
2018-08-20T21:50:01.557Z,57.82
2018-08-20T21:52:34.956Z,57.67
2018-08-20T21:55:08.411Z,57.51
2018-08-20T21:57:59.324Z,57.52
2018-08-20T22:00:32.949Z,57.45
2018-08-20T22:03:07.796Z,57.27
2018-08-20T22:05:41.253Z,57.77
2018-08-20T22:08:14.693Z,58.16
2018-08-20T22:10:48.094Z,58.14
2018-08-20T22:13:27.833Z,58.01
2018-08-20T22:16:14.864Z,57.73
2018-08-20T22:18:53.403Z,58.31
2018-08-20T22:21:26.827Z,58.48
2018-08-20T22:24:01.803Z,58.15
2018-08-20T22:26:35.328Z,58.41
2018-08-20T22:29:08.763Z,58.54
2018-08-20T22:31:46.577Z,58.66
2018-08-20T22:34:20.007Z,58.69
2018-08-20T22:36:56.999Z,58.61
2018-08-20T22:39:30.387Z,58.76
2018-08-20T22:42:03.832Z,59.09
2018-08-20T22:44:37.261Z,59.34
2018-08-20T22:47:10.661Z,59.08
2018-08-20T22:49:44.068Z,59.10
2018-08-20T22:52:21.606Z,59.17
2018-08-20T22:54:55.063Z,59.54
2018-08-20T22:57:28.460Z,59.86
2018-08-20T23:00:03.837Z,59.67
2018-08-20T23:02:37.352Z,60.15
2018-08-20T23:05:15.013Z,59.75
2018-08-20T23:07:48.498Z,59.89
2018-08-20T23:10:21.907Z,60.17
2018-08-20T23:12:55.312Z,60.74
2018-08-20T23:15:28.696Z,60.64
2018-08-20T23:18:02.801Z,60.94
2018-08-20T23:20:36.233Z,60.60
2018-08-20T23:23:09.638Z,60.93
2018-08-20T23:25:43.099Z,60.99
2018-08-20T23:28:16.526Z,60.92
2018-08-20T23:30:54.307Z,60.55
2018-08-20T23:33:27.707Z,60.98
2018-08-20T23:36:01.195Z,60.82
2018-08-20T23:38:34.630Z,60.87
2018-08-20T23:41:08.042Z,61.42
2018-08-20T23:43:45.619Z,61.32
2018-08-20T23:46:29.516Z,61.41
2018-08-20T23:49:03.491Z,61.03
2018-08-20T23:51:36.940Z,61.56
2018-08-20T23:54:11.580Z,61.62
2018-08-20T23:56:44.988Z,62.04
2018-08-20T23:59:18.487Z,61.31
